Phrae, Thailand

8:18 AM ICT on August 01, 2014 (GMT +0700)
Lampang (VTCL) Elev 794 ft | 18.28 °N, 99.51 °E | Change Station

Current weather conditions updated 18 minutes ago

Mostly Cloudy
Mostly Cloudy
79 °F
Feels Like 79 °F
N
0
Wind Variable Wind from North

Today is forecast to be nearly the same temperature as yesterday. Afternoon thunderstorms.

Today
High -- | Low -- °F
--% Chance of Precip.
Yesterday
High -- | Low -- °F
Precip. -- in
5:57 AM 6:53 PM
Waxing Crescent, 22% visible
Pressure 29.71 in
Visibility 6.2 miles
Clouds Scattered Clouds 2500 ft
Mostly Cloudy 10000 ft
Mostly Cloudy 18000 ft
Dew Point 75 °F
Humidity 89%
Rainfall 0.00 in
Snow Depth Not available.
UV 2 out of 12
Pollen Not available.
Air Quality Not available.
Flu Activity Not available.
METAR VTCL 010100Z 00000KT 9999 SCT025 BKN100 BKN180 26/24 Q1006 A2973 INFO: C

More Conditions Fewer Conditions

Pressure 29.71 in
Visibility 6.2 miles
Clouds Scattered Clouds 2500 ft
Mostly Cloudy 10000 ft
Mostly Cloudy 18000 ft
Dew Point 75 °F
Humidity 89%
Rainfall 0.00 in
Snow Depth Not available.
UV 2 out of 12
Pollen Not available.
Air Quality Not available.
Flu Activity Not available.
METAR VTCL 010100Z 00000KT 9999 SCT025 BKN100 BKN180 26/24 Q1006 A2973 INFO: C

More Conditions Fewer Conditions

10-Day Weather Forecast

Almanac

Astronomy

Aug. 01, 2014 Rise Set
Actual Time 5:57 AM ICT 6:53 PM ICT
Civil Twilight 5:34 AM ICT 7:16 PM ICT
Nautical Twilight 5:06 AM ICT 7:44 PM ICT
Astronomical Twilight 4:38 AM ICT 8:12 PM ICT
Moon 10:03 AM ICT 10:12 PM ICT
Length of Visible Light 13h 42m
Length of Day
12h 56m
Tomorrow will be 0m 44s shorter.
Waxing Crescent, 22% of the Moon is Illuminated
Jul 31
Waxing Crescent
Aug 3
First Quarter
Aug 10
Full
Aug 17
Last Quarter
Aug 25
New

Yesterday's Extremes

Country Highs Country Lows

Community

WunderPhotos

Upload Photos

1,739,477 photos uploaded!

Nearby

Snow Depth

Not available.

Earthquake Activity

City Distance Mag. Time & Date
No recent earthquake activity has been reported nearby.
Minimum magnitude displayed is 2.5.

Coastal Water Temperatures

Place Temperature
No Stations Reporting

Nearby Weather Stations

There are no personal weather stations in this area.